LROPLRBC

Guest
Details From LROP - Bucarest Otopeni Intl
To LRBC - Bacau
Flight Number -
Tags Generated
Created
Modified
Stats Distance 122 nm / 227 km
Max Altitude 0 ft / 0 m
Waypoints 2
Social Downloads 4
Likes 0
Share VATSIM

Download

Looking for another format? Having issues loading an existing format? Contact us
Advertisement - Login to hide

Notes

Generated

Route

LROP LRBC

ID Type Via Altitude Latitude Longitude Leg Dist Tot Dist Heading (true) Name
O LROP APT - 0 ft / 0 m 44.57648˚ 26.08393˚ - 0 nm - -
O LRBC APT - 0 ft / 0 m 46.53271˚ 26.90593˚ 122 nm 122 nm 16° / 17° -

Altitude Profile

Advertisement - Login to hide

LROP

Details ICAO LROP (OTP)
Name Bucarest Otopeni Intl
Region Romania
Timezone Europe/Bucharest (UTC+2.0)
Stats Elevation 314 ft / 96 m (AMSL)
Location 44.572161° 26.102177°
Runways 2
Magnetic Variation 5.605° E

METAR

LROP 112100Z 23005KT 9000 NSC 00/M01 Q1015 NOSIG

Decode

TAF

TAF LROP 111700Z 1118/1218 VRB04KT CAVOK BECMG 1200/1202 26014KT

Decode

Departure Runways

ID Width Length Bearing (true) Bearing (mag) Surface Threshold Offset Overrun Length
08L 148 ft / 45 m 11,457 ft / 3,492 m 83.91° 78.30° Asphalt 500 ft / 152 m 0 ft / 0 m
08R 148 ft / 45 m 11,455 ft / 3,491 m 83.89° 78.28° Asphalt 450 ft / 137 m 0 ft / 0 m
26L 148 ft / 45 m 11,455 ft / 3,491 m 263.92° 258.31° Asphalt 450 ft / 137 m 0 ft / 0 m
26R 148 ft / 45 m 11,457 ft / 3,492 m 263.94° 258.33° Asphalt 500 ft / 152 m 0 ft / 0 m

LRBC

Details ICAO LRBC (BCM)
Name BACAU
Region Romania
Timezone Europe/Bucharest (UTC+2.0)
Stats Elevation 607 ft / 185 m (AMSL)
Location 46.521904° 26.910177°
Runways 1
Magnetic Variation 6.067° E

METAR

LRBC 112100Z 17011KT CAVOK 02/02 Q1011

Decode

TAF

Not found

Destination Runways

ID Width Length Bearing (true) Bearing (mag) Surface Threshold Offset Overrun Length
16 262 ft / 80 m 8,166 ft / 2,489 m 164.87° 158.80° Concrete 0 ft / 0 m 0 ft / 0 m
34 262 ft / 80 m 8,166 ft / 2,489 m 344.87° 338.80° Concrete 0 ft / 0 m 0 ft / 0 m

Popular Alternatives